Terminal Aerodrome Forecast
Issued by NWS

Home | Current Version | Previous Version | Text Only | Print | Product List | Glossary On
Versions: 1 2 3 4 5 6 7 8 9 10 11 12 13 14 15
309
FTUS42 KGSP 192327
TAFGMU
TAF
KGMU 192327Z 2000/2024 08003KT P6SM VCSH OVC060
     FM200600 07004KT 6SM -SHRA BR OVC035
     FM200800 10004KT 3SM SHRA BR OVC012
     FM201000 12004KT 2SM -SHRA BR OVC004
     FM201500 23004KT 5SM BR VCSH BKN007
     FM201900 22006KT P6SM BKN040=

USA.gov is the U.S. government's official web portal to all federal, state and local government web resources and services.